North Chittenango, New York
Current Conditions -  °F | °C
As of 12:54 AM on Sunday 26 Oct 2014 (Local Time) from KSYR Reporting Station
Broken Clouds Broken Clouds  
Wind Chill: 54°   Ceiling: 9500
Heat Index: 54°   Visibility: 10mi
Dew Point: 40°   Wind: 15mph
Humidity: 59%   Direction: 290°WNW
Pressure: 29.57"   Gusts: 24mph
Location:  43.0618°N, 75.8688°W
Report Text: KSYR 260454Z 29013G21KT 10SM FEW039 SCT055 BKN095 12/04 A2957 RMK AO2 RAE04B14E45 TSE10 SLP009 TS MOV SE OCNL LTG DSNT SE P0000 T01220044 401890078
Loading
Personal Weather Stations






























Interactive Weather Map
Tropical Storm Tracking
New forecast layout! Learn more

10-Day Weather Forecast

Advertisements
Track Severe Weather on mobile